createdAt,value
2023-05-14T00:00:31.494Z,11.70
2023-05-14T00:02:57.985Z,11.45
2023-05-14T00:05:24.429Z,11.80
2023-05-14T00:07:50.760Z,12.43
2023-05-14T00:10:19.026Z,11.18
2023-05-14T00:12:45.473Z,11.95
2023-05-14T00:15:11.765Z,12.35
2023-05-14T00:17:38.187Z,11.23
2023-05-14T00:20:07.065Z,12.10
2023-05-14T00:22:34.116Z,11.23
2023-05-14T00:25:00.656Z,12.45
2023-05-14T00:27:26.908Z,11.88
2023-05-14T00:29:53.211Z,10.90
2023-05-14T00:32:19.651Z,11.73
2023-05-14T00:34:45.927Z,11.52
2023-05-14T00:37:12.176Z,11.73
2023-05-14T00:39:38.479Z,10.82
2023-05-14T00:42:04.925Z,11.43
2023-05-14T00:44:31.178Z,11.70
2023-05-14T00:46:58.259Z,12.02
2023-05-14T00:49:25.229Z,10.77
2023-05-14T00:51:52.340Z,11.13
2023-05-14T00:54:19.481Z,11.32
2023-05-14T00:56:46.945Z,10.68
2023-05-14T00:59:13.784Z,11.38
2023-05-14T01:01:40.116Z,11.02
2023-05-14T01:04:07.194Z,11.57
2023-05-14T01:06:39.760Z,11.23
2023-05-14T01:09:10.006Z,11.85
2023-05-14T01:11:47.492Z,10.45
2023-05-14T01:14:28.895Z,11.18
2023-05-14T01:16:58.042Z,10.93
2023-05-14T01:19:33.735Z,11.63
2023-05-14T01:24:26.355Z,10.65
2023-05-14T01:26:53.205Z,11.25
2023-05-14T01:29:23.292Z,12.10
2023-05-14T01:31:50.809Z,11.43
2023-05-14T01:34:19.825Z,12.13
2023-05-14T01:36:47.335Z,11.05
2023-05-14T01:39:14.279Z,11.20
2023-05-14T01:41:42.202Z,12.30
2023-05-14T01:44:11.809Z,11.30
2023-05-14T01:46:38.366Z,11.40
2023-05-14T01:49:04.771Z,11.85
2023-05-14T01:51:31.076Z,11.65
2023-05-14T01:53:57.437Z,11.85
2023-05-14T01:56:23.936Z,12.50
2023-05-14T01:58:50.245Z,11.13
2023-05-14T02:01:16.590Z,11.65
2023-05-14T02:03:42.852Z,12.40
2023-05-14T02:06:09.146Z,12.48
2023-05-14T02:08:35.430Z,11.80
2023-05-14T02:11:01.864Z,13.05
2023-05-14T02:13:28.111Z,11.82
2023-05-14T02:15:54.457Z,11.13
2023-05-14T02:18:20.756Z,12.65
2023-05-14T02:20:47.069Z,11.77
2023-05-14T02:23:13.444Z,11.63
2023-05-14T02:25:39.837Z,12.00
2023-05-14T02:28:06.090Z,11.68
2023-05-14T02:30:32.405Z,11.65
2023-05-14T02:32:59.055Z,11.65
2023-05-14T02:35:25.433Z,11.73
2023-05-14T02:37:51.747Z,11.23
2023-05-14T02:40:18.005Z,11.32
2023-05-14T02:42:44.885Z,12.52
2023-05-14T02:45:11.265Z,12.10
2023-05-14T02:47:38.335Z,11.07
2023-05-14T02:50:06.313Z,11.55
2023-05-14T02:52:32.809Z,11.07
2023-05-14T02:54:59.146Z,11.55
2023-05-14T02:57:25.536Z,10.95
2023-05-14T02:59:52.019Z,12.07
2023-05-14T03:02:18.799Z,12.77
2023-05-14T03:04:45.474Z,12.10
2023-05-14T03:07:11.851Z,12.23
2023-05-14T03:09:38.502Z,11.73
2023-05-14T03:12:05.069Z,12.48
2023-05-14T03:14:31.417Z,12.38
2023-05-14T03:16:57.795Z,12.55
2023-05-14T03:19:24.146Z,11.77
2023-05-14T03:21:50.544Z,11.68
2023-05-14T03:24:17.021Z,11.70
2023-05-14T03:26:43.492Z,11.98
2023-05-14T03:29:10.724Z,11.35
2023-05-14T03:31:37.182Z,13.38
2023-05-14T03:34:03.495Z,11.65
2023-05-14T03:36:29.814Z,12.70
2023-05-14T03:38:56.134Z,11.90
2023-05-14T03:41:22.990Z,12.45
2023-05-14T03:43:49.276Z,12.48
2023-05-14T03:46:15.768Z,11.23
2023-05-14T03:48:42.613Z,12.20
2023-05-14T03:51:09.011Z,13.48
2023-05-14T03:53:35.289Z,12.02
2023-05-14T03:56:01.586Z,11.93
2023-05-14T03:58:27.952Z,11.77
2023-05-14T04:00:54.255Z,11.25
2023-05-14T04:03:20.670Z,11.85
2023-05-14T04:05:47.008Z,11.15
2023-05-14T04:08:13.345Z,11.77
2023-05-14T04:10:39.760Z,12.00
2023-05-14T04:13:06.277Z,11.43
2023-05-14T04:15:32.633Z,12.18
2023-05-14T04:17:59.087Z,11.98
2023-05-14T04:20:25.848Z,11.38
2023-05-14T04:22:52.660Z,12.27
2023-05-14T04:25:19.106Z,11.50
2023-05-14T04:27:45.729Z,11.95
2023-05-14T04:30:12.502Z,11.38
2023-05-14T04:32:39.299Z,11.32
2023-05-14T04:35:05.933Z,11.55
2023-05-14T04:37:33.102Z,10.80
2023-05-14T04:39:59.460Z,11.88
2023-05-14T04:42:25.739Z,11.65
2023-05-14T04:44:52.308Z,10.80
2023-05-14T04:47:18.754Z,11.60
2023-05-14T04:49:45.169Z,10.00
2023-05-14T04:52:11.513Z,10.55
2023-05-14T04:54:37.813Z,10.75
2023-05-14T04:57:04.264Z,9.88
2023-05-14T04:59:30.936Z,9.02
2023-05-14T05:01:57.703Z,10.02
2023-05-14T05:04:24.140Z,10.00
2023-05-14T05:06:50.657Z,10.57
2023-05-14T05:09:17.744Z,9.98
2023-05-14T05:11:44.089Z,10.25
2023-05-14T05:14:10.514Z,10.82
2023-05-14T05:16:36.897Z,9.77
2023-05-14T05:19:03.345Z,10.30
2023-05-14T05:21:29.769Z,9.82
2023-05-14T05:23:56.056Z,9.95
2023-05-14T05:26:22.394Z,9.80
2023-05-14T05:28:48.772Z,9.25
2023-05-14T05:31:17.068Z,9.70
2023-05-14T05:33:44.764Z,10.05
2023-05-14T05:36:11.075Z,10.18
2023-05-14T05:38:37.610Z,10.07
2023-05-14T05:41:03.834Z,9.75
2023-05-14T05:43:30.188Z,9.88
2023-05-14T05:45:56.432Z,9.00
2023-05-14T05:48:22.748Z,9.93
2023-05-14T05:50:49.215Z,10.13
2023-05-14T05:53:18.530Z,9.43
2023-05-14T05:55:44.860Z,9.98
2023-05-14T05:58:11.112Z,9.68
2023-05-14T06:00:37.422Z,10.27
2023-05-14T06:03:03.705Z,9.90
2023-05-14T06:05:30.090Z,9.60
2023-05-14T06:07:56.571Z,10.02
2023-05-14T06:10:23.028Z,8.80
2023-05-14T06:12:49.431Z,9.30
2023-05-14T06:15:15.729Z,9.15
2023-05-14T06:17:42.152Z,9.52
2023-05-14T06:20:09.054Z,10.80
2023-05-14T06:22:35.412Z,9.77
2023-05-14T06:25:01.870Z,9.48
2023-05-14T06:27:28.171Z,9.25
2023-05-14T06:29:54.431Z,8.15
2023-05-14T06:32:20.802Z,9.30
2023-05-14T06:34:47.305Z,9.05
2023-05-14T06:37:13.616Z,8.80
2023-05-14T06:39:40.307Z,8.75
2023-05-14T06:42:07.381Z,8.43
2023-05-14T06:44:33.657Z,8.80
2023-05-14T06:46:59.976Z,8.48
2023-05-14T06:49:26.345Z,7.63
2023-05-14T06:51:52.625Z,7.93
2023-05-14T06:54:20.448Z,8.07
2023-05-14T06:56:46.844Z,8.32
2023-05-14T06:59:13.146Z,8.57
2023-05-14T07:01:39.521Z,9.00
2023-05-14T07:04:05.896Z,8.48
2023-05-14T07:06:32.628Z,9.35
2023-05-14T07:08:59.384Z,8.90
2023-05-14T07:11:26.033Z,9.30
2023-05-14T07:13:52.344Z,9.77
2023-05-14T07:16:18.654Z,9.45
2023-05-14T07:18:45.576Z,9.95
2023-05-14T07:21:12.240Z,10.77
2023-05-14T07:23:38.598Z,10.70
2023-05-14T07:26:05.725Z,10.13
2023-05-14T07:28:32.113Z,9.43
2023-05-14T07:30:58.578Z,10.10
2023-05-14T07:33:25.461Z,10.50
2023-05-14T07:35:52.154Z,11.55
2023-05-14T07:38:19.017Z,11.50
2023-05-14T07:40:45.316Z,10.98
2023-05-14T07:43:11.698Z,12.18
2023-05-14T07:45:39.252Z,11.38
2023-05-14T07:48:06.055Z,10.80
2023-05-14T07:50:32.673Z,11.18
2023-05-14T07:52:59.005Z,11.35
2023-05-14T07:55:25.856Z,10.30
2023-05-14T07:57:52.147Z,10.80
2023-05-14T08:00:18.533Z,11.35
2023-05-14T08:02:45.000Z,10.55
2023-05-14T08:05:11.528Z,11.38
2023-05-14T08:07:37.854Z,11.52
2023-05-14T08:10:04.313Z,11.52
2023-05-14T08:12:30.690Z,11.00
2023-05-14T08:14:56.996Z,10.88
2023-05-14T08:17:23.343Z,10.77
2023-05-14T08:19:49.589Z,11.57
2023-05-14T08:22:15.839Z,10.98
2023-05-14T08:24:43.092Z,9.95
2023-05-14T08:27:09.852Z,10.30
2023-05-14T08:29:36.228Z,9.75
2023-05-14T08:32:11.671Z,10.32
2023-05-14T08:34:46.320Z,9.25
2023-05-14T08:37:12.764Z,9.05
2023-05-14T08:39:39.487Z,9.75
2023-05-14T08:42:06.722Z,8.57
2023-05-14T08:44:36.235Z,9.35
2023-05-14T08:47:02.773Z,9.75
2023-05-14T08:49:40.680Z,9.02
2023-05-14T08:52:07.825Z,9.27
2023-05-14T08:54:34.625Z,9.15
2023-05-14T08:57:00.995Z,8.77
2023-05-14T08:59:27.239Z,9.10
2023-05-14T09:01:54.281Z,8.70
2023-05-14T09:04:22.093Z,8.38
2023-05-14T09:06:52.288Z,7.93
2023-05-14T09:09:18.608Z,7.32
2023-05-14T09:11:48.762Z,8.15
2023-05-14T09:14:15.119Z,7.70
2023-05-14T09:16:45.327Z,8.68
2023-05-14T09:19:12.529Z,9.00
2023-05-14T09:21:39.275Z,7.97
2023-05-14T09:24:05.805Z,8.13
2023-05-14T09:26:32.813Z,9.10
2023-05-14T09:29:02.773Z,8.82
2023-05-14T09:31:29.543Z,7.78
2023-05-14T09:33:56.130Z,8.30
2023-05-14T09:36:23.267Z,7.45
2023-05-14T09:38:49.559Z,7.63
2023-05-14T09:41:16.318Z,7.78
2023-05-14T09:43:42.789Z,6.82
2023-05-14T09:46:09.128Z,7.63
2023-05-14T09:48:35.654Z,7.35
2023-05-14T09:51:02.810Z,7.05
2023-05-14T09:53:32.447Z,6.35
2023-05-14T09:55:58.892Z,6.07
2023-05-14T09:58:25.222Z,6.28
2023-05-14T10:00:51.736Z,6.65
2023-05-14T10:03:20.095Z,6.80
2023-05-14T10:05:48.853Z,7.75
2023-05-14T10:08:20.341Z,6.40
2023-05-14T10:10:46.651Z,6.80
2023-05-14T10:13:20.272Z,6.70
2023-05-14T10:15:56.494Z,6.72
2023-05-14T10:18:23.350Z,6.72
2023-05-14T10:21:03.815Z,6.78
2023-05-14T10:23:30.628Z,6.75
2023-05-14T10:26:00.347Z,7.00
2023-05-14T10:28:27.182Z,7.45
2023-05-14T10:30:54.046Z,6.53
2023-05-14T10:33:21.011Z,5.57
2023-05-14T10:35:52.330Z,6.30
2023-05-14T10:38:21.914Z,5.47
2023-05-14T10:40:48.391Z,5.63
2023-05-14T10:43:15.968Z,5.40
2023-05-14T10:45:43.808Z,5.72
2023-05-14T10:48:10.333Z,5.75
2023-05-14T10:50:36.676Z,5.03
2023-05-14T10:53:03.016Z,5.60
2023-05-14T10:55:29.636Z,6.22
2023-05-14T10:57:58.814Z,5.60
2023-05-14T11:00:25.999Z,5.45
2023-05-14T11:02:55.935Z,4.85
2023-05-14T11:05:22.344Z,5.25
2023-05-14T11:07:49.170Z,5.85
2023-05-14T11:10:16.568Z,5.82
2023-05-14T11:12:46.602Z,5.53
2023-05-14T11:15:17.312Z,4.80
2023-05-14T11:17:44.371Z,4.68
2023-05-14T11:20:11.131Z,5.55
2023-05-14T11:22:38.446Z,5.75
2023-05-14T11:25:05.402Z,5.88
2023-05-14T11:27:33.545Z,5.68
2023-05-14T11:30:00.976Z,6.43
2023-05-14T11:32:27.570Z,5.70
2023-05-14T11:34:53.913Z,5.05
2023-05-14T11:37:20.285Z,5.45
2023-05-14T11:39:47.373Z,5.55
2023-05-14T11:42:14.687Z,5.10
2023-05-14T11:44:41.593Z,5.25
2023-05-14T11:47:07.903Z,5.28
2023-05-14T11:49:36.058Z,5.65
2023-05-14T11:52:03.055Z,5.90
2023-05-14T11:54:29.884Z,5.05
2023-05-14T11:56:56.708Z,6.55
2023-05-14T11:59:31.404Z,6.57
2023-05-14T12:01:58.121Z,5.82
2023-05-14T12:04:24.599Z,5.05
2023-05-14T12:06:53.828Z,5.70
2023-05-14T12:09:20.692Z,5.68
2023-05-14T12:11:47.618Z,5.50
2023-05-14T12:14:18.003Z,5.28
2023-05-14T12:16:44.830Z,5.38
2023-05-14T12:19:11.689Z,5.70
2023-05-14T12:21:38.135Z,6.00
2023-05-14T12:24:04.535Z,5.88
2023-05-14T12:26:34.026Z,6.13
2023-05-14T12:29:01.296Z,5.82
2023-05-14T12:31:28.345Z,5.75
2023-05-14T12:33:54.758Z,6.05
2023-05-14T12:36:22.230Z,5.30
2023-05-14T12:38:58.295Z,5.15
2023-05-14T12:41:24.588Z,5.80
2023-05-14T12:43:50.859Z,5.70
2023-05-14T12:46:17.288Z,6.03
2023-05-14T12:48:43.615Z,5.20
2023-05-14T12:51:09.909Z,5.82
2023-05-14T12:53:36.151Z,5.90
2023-05-14T12:56:02.548Z,5.32
2023-05-14T12:58:28.906Z,5.80
2023-05-14T13:00:55.376Z,6.40
2023-05-14T13:03:21.793Z,5.57
2023-05-14T13:05:48.112Z,6.93
2023-05-14T13:08:17.953Z,5.55
2023-05-14T13:10:44.808Z,6.10
2023-05-14T13:13:11.573Z,6.65
2023-05-14T13:15:38.110Z,5.93
2023-05-14T13:18:04.793Z,5.32
2023-05-14T13:20:31.146Z,5.50
2023-05-14T13:22:57.585Z,6.32
2023-05-14T13:25:24.208Z,5.35
2023-05-14T13:27:53.516Z,5.75
2023-05-14T13:30:19.967Z,5.78
2023-05-14T13:32:46.637Z,5.20
2023-05-14T13:35:13.263Z,5.88
2023-05-14T13:37:39.791Z,6.10
2023-05-14T13:40:09.622Z,5.07
2023-05-14T13:42:36.584Z,5.53
2023-05-14T13:45:03.485Z,4.78
2023-05-14T13:47:29.843Z,5.32
2023-05-14T13:49:56.528Z,5.65
2023-05-14T13:52:22.891Z,5.63
2023-05-14T13:54:49.277Z,6.13
2023-05-14T13:57:15.640Z,4.55
2023-05-14T13:59:41.916Z,4.90
2023-05-14T14:02:08.400Z,5.10
2023-05-14T14:04:34.846Z,5.00
2023-05-14T14:07:01.161Z,5.20
2023-05-14T14:09:27.635Z,5.05
2023-05-14T14:11:53.956Z,5.53
2023-05-14T14:14:20.295Z,5.47
2023-05-14T14:16:46.579Z,5.93
2023-05-14T14:19:13.098Z,5.18
2023-05-14T14:21:42.655Z,5.70
2023-05-14T14:24:08.895Z,4.80
2023-05-14T14:26:35.293Z,4.75
2023-05-14T14:29:01.609Z,4.70
2023-05-14T14:31:28.124Z,4.78
2023-05-14T14:33:54.510Z,4.80
2023-05-14T14:36:20.969Z,5.75
2023-05-14T14:38:47.250Z,4.53
2023-05-14T14:41:13.517Z,4.78
2023-05-14T14:43:41.100Z,4.97
2023-05-14T14:46:10.273Z,4.68
2023-05-14T14:48:39.831Z,3.95
2023-05-14T14:51:06.925Z,4.97
2023-05-14T14:53:33.576Z,4.32
2023-05-14T14:56:02.826Z,5.32
2023-05-14T14:58:29.350Z,5.13
2023-05-14T15:00:56.509Z,4.88
2023-05-14T15:03:23.638Z,4.82
2023-05-14T15:05:51.702Z,4.18
2023-05-14T15:08:18.062Z,4.68
2023-05-14T15:10:44.569Z,4.85
2023-05-14T15:13:11.461Z,5.18
2023-05-14T15:15:37.773Z,5.05
2023-05-14T15:18:04.495Z,5.15
2023-05-14T15:20:30.931Z,4.65
2023-05-14T15:22:57.336Z,4.97
2023-05-14T15:25:24.305Z,4.65
2023-05-14T15:27:50.838Z,4.55
2023-05-14T15:30:17.116Z,4.03
2023-05-14T15:32:48.737Z,4.85
2023-05-14T15:35:15.158Z,5.38
2023-05-14T15:37:42.558Z,4.57
2023-05-14T15:40:09.157Z,4.90
2023-05-14T15:42:38.850Z,4.72
2023-05-14T15:45:05.471Z,4.60
2023-05-14T15:47:32.051Z,5.88
2023-05-14T15:49:58.750Z,5.10
2023-05-14T15:52:25.093Z,5.40
2023-05-14T15:54:51.493Z,5.65
2023-05-14T15:57:19.901Z,6.03
2023-05-14T15:59:46.653Z,6.18
2023-05-14T16:02:13.303Z,5.72
2023-05-14T16:04:39.770Z,6.07
2023-05-14T16:07:09.361Z,5.43
2023-05-14T16:09:35.892Z,5.18
2023-05-14T16:12:02.353Z,5.18
2023-05-14T16:41:12.209Z,6.70
2023-05-14T16:43:38.623Z,6.40
2023-05-14T16:46:06.077Z,5.80
2023-05-14T16:48:32.417Z,4.95
2023-05-14T16:50:59.498Z,4.88
2023-05-14T16:53:25.956Z,5.22
2023-05-14T16:55:52.304Z,5.10
2023-05-14T16:58:18.574Z,5.40
2023-05-14T17:00:44.829Z,5.60
2023-05-14T17:03:11.237Z,5.30
2023-05-14T17:05:37.559Z,5.85
2023-05-14T17:08:04.727Z,6.32
2023-05-14T17:10:33.105Z,6.43
2023-05-14T17:12:59.736Z,7.03
2023-05-14T17:15:26.212Z,6.88
2023-05-14T17:17:52.609Z,7.72
2023-05-14T17:20:18.909Z,6.72
2023-05-14T17:22:45.186Z,6.40
2023-05-14T17:25:12.257Z,6.85
2023-05-14T17:27:38.641Z,7.82
2023-05-14T17:30:05.248Z,6.63
2023-05-14T17:32:31.771Z,6.20
2023-05-14T17:34:58.687Z,6.32
2023-05-14T17:37:25.253Z,6.30
2023-05-14T17:39:51.778Z,6.70
2023-05-14T17:42:18.215Z,6.55
2023-05-14T17:44:45.226Z,6.65
2023-05-14T17:47:11.661Z,6.05
2023-05-14T17:49:37.944Z,5.78
2023-05-14T17:52:04.264Z,6.82
2023-05-14T17:54:30.641Z,6.05
2023-05-14T17:56:57.036Z,6.28
2023-05-14T17:59:24.432Z,6.60
2023-05-14T18:01:50.914Z,8.00
2023-05-14T18:04:17.224Z,10.52
2023-05-14T18:06:44.524Z,7.88
2023-05-14T18:09:10.890Z,7.50
2023-05-14T18:11:37.152Z,8.10
2023-05-14T18:14:03.406Z,9.27
2023-05-14T18:16:29.860Z,8.10
2023-05-14T18:18:56.297Z,8.23
2023-05-14T18:21:22.829Z,9.63
2023-05-14T18:23:49.359Z,6.60
2023-05-14T18:26:15.793Z,7.03
2023-05-14T18:28:42.128Z,6.95
2023-05-14T18:31:08.633Z,5.93
2023-05-14T18:33:34.928Z,6.22
2023-05-14T18:36:01.716Z,5.40
2023-05-14T18:38:28.406Z,5.85
2023-05-14T18:40:54.864Z,5.53
2023-05-14T18:43:21.179Z,6.65
2023-05-14T18:45:48.275Z,6.18
2023-05-14T18:48:15.127Z,6.82
2023-05-14T18:50:41.396Z,7.63
2023-05-14T18:53:08.473Z,6.70
2023-05-14T18:55:35.097Z,7.00
2023-05-14T18:58:01.530Z,7.88
2023-05-14T19:00:27.860Z,6.30
2023-05-14T19:02:54.248Z,6.95
2023-05-14T19:05:20.865Z,6.47
2023-05-14T19:07:48.063Z,7.80
2023-05-14T19:10:14.653Z,6.25
2023-05-14T19:12:41.154Z,7.03
2023-05-14T19:15:07.663Z,8.50
2023-05-14T19:17:34.266Z,8.10
2023-05-14T19:20:00.510Z,8.48
2023-05-14T19:22:26.962Z,7.40
2023-05-14T19:24:53.235Z,10.65
2023-05-14T19:27:20.565Z,7.20
2023-05-14T19:29:46.833Z,6.13
2023-05-14T19:32:13.169Z,6.93
2023-05-14T19:34:39.654Z,7.00
2023-05-14T19:37:05.981Z,6.60
2023-05-14T19:39:32.396Z,6.25
2023-05-14T19:41:58.856Z,6.20
2023-05-14T19:44:25.321Z,6.53
2023-05-14T19:46:51.766Z,5.93
2023-05-14T19:49:18.188Z,5.95
2023-05-14T19:51:44.479Z,11.50
2023-05-14T19:54:10.757Z,6.50
2023-05-14T19:56:38.203Z,7.60
2023-05-14T19:59:04.557Z,8.40
2023-05-14T20:01:30.908Z,8.82
2023-05-14T20:03:57.439Z,8.10
2023-05-14T20:06:23.813Z,7.97
2023-05-14T20:08:51.465Z,9.55
2023-05-14T20:11:19.661Z,8.35
2023-05-14T20:13:46.019Z,8.20
2023-05-14T20:16:13.533Z,7.70
2023-05-14T20:18:39.888Z,7.32
2023-05-14T20:21:06.222Z,8.20
2023-05-14T20:23:32.855Z,8.40
2023-05-14T20:26:01.639Z,6.55
2023-05-14T20:28:28.057Z,7.82
2023-05-14T20:30:55.338Z,6.70
2023-05-14T20:33:21.911Z,7.38
2023-05-14T20:35:48.328Z,8.10
2023-05-14T20:38:14.747Z,7.97
2023-05-14T20:40:41.050Z,8.13
2023-05-14T20:43:07.393Z,7.72
2023-05-14T20:45:33.728Z,7.15
2023-05-14T20:48:00.203Z,7.43
2023-05-14T20:50:27.745Z,7.55
2023-05-14T20:52:54.814Z,7.32
2023-05-14T20:55:21.808Z,7.70
2023-05-14T20:57:49.567Z,7.63
2023-05-14T21:00:16.000Z,7.00
2023-05-14T21:02:42.428Z,6.80
2023-05-14T21:05:08.985Z,7.10
2023-05-14T21:07:37.235Z,9.30
2023-05-14T21:10:03.905Z,6.55
2023-05-14T21:12:30.164Z,9.13
2023-05-14T21:14:56.453Z,10.43
2023-05-14T21:17:22.845Z,8.02
2023-05-14T21:19:49.128Z,8.60
2023-05-14T21:22:15.458Z,7.25
2023-05-14T21:24:41.792Z,7.43
2023-05-14T21:27:08.108Z,10.25
2023-05-14T21:29:34.461Z,11.75
2023-05-14T21:32:01.035Z,13.65
2023-05-14T21:34:27.958Z,10.40
2023-05-14T21:36:55.479Z,8.40
2023-05-14T21:39:21.807Z,11.00
2023-05-14T21:41:48.129Z,13.32
2023-05-14T21:44:14.390Z,12.27
2023-05-14T21:46:40.708Z,10.90
2023-05-14T21:49:07.121Z,11.88
2023-05-14T21:51:33.614Z,9.45
2023-05-14T21:53:59.869Z,11.95
2023-05-14T21:56:26.332Z,13.95
2023-05-14T21:58:55.090Z,14.23
2023-05-14T22:01:21.478Z,12.18
2023-05-14T22:03:47.798Z,11.13
2023-05-14T22:06:14.184Z,11.32
2023-05-14T22:08:40.517Z,8.60
2023-05-14T22:11:06.779Z,7.97
2023-05-14T22:13:35.016Z,7.85
2023-05-14T22:16:12.037Z,8.50
2023-05-14T22:18:38.911Z,8.95
2023-05-14T22:21:05.762Z,8.80
2023-05-14T22:23:32.104Z,8.65
2023-05-14T22:25:58.552Z,8.35
2023-05-14T22:28:24.893Z,8.77
2023-05-14T22:30:51.249Z,9.23
2023-05-14T22:33:19.212Z,9.48
2023-05-14T22:35:45.543Z,8.98
2023-05-14T22:38:12.199Z,9.07
2023-05-14T22:40:38.591Z,9.20
2023-05-14T22:43:04.944Z,9.48
2023-05-14T22:45:31.244Z,9.48
2023-05-14T22:47:57.857Z,9.55
2023-05-14T22:50:24.102Z,9.48
2023-05-14T22:52:50.438Z,9.32
2023-05-14T22:55:16.750Z,9.10
2023-05-14T22:57:43.190Z,10.05
2023-05-14T23:00:10.012Z,10.02
2023-05-14T23:02:36.497Z,9.70
2023-05-14T23:05:03.115Z,9.15
2023-05-14T23:07:29.437Z,9.57
2023-05-14T23:09:55.773Z,10.48
2023-05-14T23:12:22.028Z,9.98
2023-05-14T23:14:48.239Z,9.80
2023-05-14T23:17:14.596Z,10.45
2023-05-14T23:19:41.342Z,10.63
2023-05-14T23:22:07.645Z,10.02
2023-05-14T23:24:33.972Z,10.88
2023-05-14T23:27:00.437Z,10.73
2023-05-14T23:29:26.754Z,10.63
2023-05-14T23:31:53.117Z,10.63
2023-05-14T23:34:19.422Z,10.60
2023-05-14T23:36:45.757Z,10.93
2023-05-14T23:39:12.143Z,10.30
2023-05-14T23:41:38.469Z,10.85
2023-05-14T23:44:04.788Z,11.68
2023-05-14T23:46:31.188Z,12.07
2023-05-14T23:48:57.786Z,11.60
2023-05-14T23:51:24.394Z,10.93
2023-05-14T23:53:53.033Z,11.38
2023-05-14T23:56:19.299Z,11.50
2023-05-14T23:58:45.556Z,11.65
